sensor_id;sensor_type;location;lat;lon;timestamp;pressure;altitude;pressure_sealevel;temperature;humidity
58622;BME280;44389;51.578;5.456;2023-05-08T00:00:45;101899.03;;;12.99;100.00
58622;BME280;44389;51.578;5.456;2023-05-08T00:03:10;101905.66;;;12.91;100.00
58622;BME280;44389;51.578;5.456;2023-05-08T00:05:35;101899.41;;;12.86;100.00
58622;BME280;44389;51.578;5.456;2023-05-08T00:08:01;101915.72;;;12.83;100.00
58622;BME280;44389;51.578;5.456;2023-05-08T00:10:27;101916.63;;;12.85;100.00
58622;BME280;44389;51.578;5.456;2023-05-08T00:12:53;101916.59;;;12.84;100.00
58622;BME280;44389;51.578;5.456;2023-05-08T00:15:18;101917.44;;;12.84;100.00
58622;BME280;44389;51.578;5.456;2023-05-08T00:17:44;101914.75;;;12.81;100.00
58622;BME280;44389;51.578;5.456;2023-05-08T00:20:10;101908.91;;;12.87;100.00
58622;BME280;44389;51.578;5.456;2023-05-08T00:22:36;101901.00;;;12.82;100.00
58622;BME280;44389;51.578;5.456;2023-05-08T00:25:02;101899.25;;;12.81;100.00
58622;BME280;44389;51.578;5.456;2023-05-08T00:27:29;101900.81;;;12.78;100.00
58622;BME280;44389;51.578;5.456;2023-05-08T00:29:54;101898.53;;;12.85;100.00
58622;BME280;44389;51.578;5.456;2023-05-08T00:32:20;101901.88;;;12.83;100.00
58622;BME280;44389;51.578;5.456;2023-05-08T00:34:45;101904.66;;;12.88;100.00
58622;BME280;44389;51.578;5.456;2023-05-08T00:37:10;101897.59;;;12.83;100.00
58622;BME280;44389;51.578;5.456;2023-05-08T00:39:36;101899.56;;;12.91;100.00
58622;BME280;44389;51.578;5.456;2023-05-08T00:42:01;101898.53;;;12.85;100.00
58622;BME280;44389;51.578;5.456;2023-05-08T00:44:26;101902.63;;;12.80;100.00
58622;BME280;44389;51.578;5.456;2023-05-08T00:46:51;101901.00;;;12.82;100.00
58622;BME280;44389;51.578;5.456;2023-05-08T00:49:17;101900.25;;;12.85;100.00
58622;BME280;44389;51.578;5.456;2023-05-08T00:51:44;101894.16;;;12.84;100.00
58622;BME280;44389;51.578;5.456;2023-05-08T00:54:10;101896.84;;;12.86;100.00
58622;BME280;44389;51.578;5.456;2023-05-08T00:56:37;101891.53;;;12.83;100.00
58622;BME280;44389;51.578;5.456;2023-05-08T00:59:03;101888.16;;;12.85;100.00
58622;BME280;44389;51.578;5.456;2023-05-08T01:01:33;101900.19;;;12.83;100.00
58622;BME280;44389;51.578;5.456;2023-05-08T01:04:02;101899.34;;;12.84;100.00
58622;BME280;44389;51.578;5.456;2023-05-08T01:06:27;101896.59;;;12.80;100.00
58622;BME280;44389;51.578;5.456;2023-05-08T01:08:53;101901.94;;;12.84;100.00
58622;BME280;44389;51.578;5.456;2023-05-08T01:11:27;101896.84;;;12.86;100.00
58622;BME280;44389;51.578;5.456;2023-05-08T01:14:24;101895.06;;;12.85;100.00
58622;BME280;44389;51.578;5.456;2023-05-08T01:17:09;101892.28;;;12.80;100.00
58622;BME280;44389;51.578;5.456;2023-05-08T01:28:26;101888.06;;;12.82;100.00
58622;BME280;44389;51.578;5.456;2023-05-08T01:31:09;101884.66;;;12.83;100.00
58622;BME280;44389;51.578;5.456;2023-05-08T01:33:43;101890.53;;;12.79;100.00
58622;BME280;44389;51.578;5.456;2023-05-08T01:36:17;101896.41;;;12.75;100.00
58622;BME280;44389;51.578;5.456;2023-05-08T01:38:52;101900.78;;;12.76;100.00
58622;BME280;44389;51.578;5.456;2023-05-08T01:41:25;101895.59;;;12.76;100.00
58622;BME280;44389;51.578;5.456;2023-05-08T01:44:14;101895.50;;;12.73;100.00
58622;BME280;44389;51.578;5.456;2023-05-08T01:46:44;101896.03;;;12.64;100.00
58622;BME280;44389;51.578;5.456;2023-05-08T01:49:18;101895.88;;;12.61;100.00
58622;BME280;44389;51.578;5.456;2023-05-08T01:51:59;101891.09;;;12.71;100.00
58622;BME280;44389;51.578;5.456;2023-05-08T01:54:30;101896.88;;;12.65;100.00
58622;BME280;44389;51.578;5.456;2023-05-08T01:56:58;101892.44;;;12.61;100.00
58622;BME280;44389;51.578;5.456;2023-05-08T01:59:26;101896.72;;;12.60;100.00
58622;BME280;44389;51.578;5.456;2023-05-08T02:01:54;101900.28;;;12.64;100.00
58622;BME280;44389;51.578;5.456;2023-05-08T02:04:21;101903.06;;;12.68;100.00
58622;BME280;44389;51.578;5.456;2023-05-08T02:06:49;101905.59;;;12.67;100.00
58622;BME280;44389;51.578;5.456;2023-05-08T02:09:15;101901.59;;;12.75;100.00
58622;BME280;44389;51.578;5.456;2023-05-08T02:11:41;101909.09;;;12.69;100.00
58622;BME280;44389;51.578;5.456;2023-05-08T02:14:10;101911.78;;;12.71;100.00
58622;BME280;44389;51.578;5.456;2023-05-08T02:16:37;101906.66;;;12.72;100.00
58622;BME280;44389;51.578;5.456;2023-05-08T02:19:06;101900.66;;;12.73;100.00
58622;BME280;44389;51.578;5.456;2023-05-08T02:21:32;101898.09;;;12.73;100.00
58622;BME280;44389;51.578;5.456;2023-05-08T02:23:59;101908.44;;;12.73;100.00
58622;BME280;44389;51.578;5.456;2023-05-08T02:26:26;101905.84;;;12.73;100.00
58622;BME280;44389;51.578;5.456;2023-05-08T02:28:53;101903.16;;;12.72;100.00
58622;BME280;44389;51.578;5.456;2023-05-08T02:31:20;101906.66;;;12.72;100.00
58622;BME280;44389;51.578;5.456;2023-05-08T02:33:46;101907.56;;;12.74;100.00
58622;BME280;44389;51.578;5.456;2023-05-08T02:36:16;101917.81;;;12.71;100.00
58622;BME280;44389;51.578;5.456;2023-05-08T02:38:43;101916.06;;;12.70;100.00
58622;BME280;44389;51.578;5.456;2023-05-08T02:41:11;101915.22;;;12.71;100.00
58622;BME280;44389;51.578;5.456;2023-05-08T02:43:37;101913.50;;;12.72;100.00
58622;BME280;44389;51.578;5.456;2023-05-08T02:46:12;101921.28;;;12.72;100.00
58622;BME280;44389;51.578;5.456;2023-05-08T02:49:06;101921.22;;;12.70;100.00
58622;BME280;44389;51.578;5.456;2023-05-08T02:51:41;101912.53;;;12.68;100.00
58622;BME280;44389;51.578;5.456;2023-05-08T02:54:15;101909.72;;;12.62;100.00
58622;BME280;44389;51.578;5.456;2023-05-08T02:56:57;101913.13;;;12.61;100.00
58622;BME280;44389;51.578;5.456;2023-05-08T02:59:30;101912.88;;;12.55;100.00
58622;BME280;44389;51.578;5.456;2023-05-08T03:03:03;101905.00;;;12.51;100.00
58622;BME280;44389;51.578;5.456;2023-05-08T03:04:59;101909.53;;;12.57;100.00
58622;BME280;44389;51.578;5.456;2023-05-08T03:07:28;101911.06;;;12.52;100.00
58622;BME280;44389;51.578;5.456;2023-05-08T03:10:01;101907.59;;;12.51;100.00
58622;BME280;44389;51.578;5.456;2023-05-08T03:12:31;101906.88;;;12.56;100.00
58622;BME280;44389;51.578;5.456;2023-05-08T03:17:32;101908.31;;;12.47;100.00
58622;BME280;44389;51.578;5.456;2023-05-08T03:19:58;101904.50;;;12.60;100.00
58622;BME280;44389;51.578;5.456;2023-05-08T03:22:27;101908.78;;;12.37;100.00
58622;BME280;44389;51.578;5.456;2023-05-08T03:24:54;101907.81;;;12.35;100.00
58622;BME280;44389;51.578;5.456;2023-05-08T03:27:21;101903.47;;;12.34;100.00
58622;BME280;44389;51.578;5.456;2023-05-08T03:29:47;101905.13;;;12.32;100.00
58622;BME280;44389;51.578;5.456;2023-05-08T03:32:15;101904.16;;;12.30;100.00
58622;BME280;44389;51.578;5.456;2023-05-08T03:34:41;101898.75;;;12.24;100.00
58622;BME280;44389;51.578;5.456;2023-05-08T03:37:07;101896.13;;;12.22;100.00
58622;BME280;44389;51.578;5.456;2023-05-08T03:39:33;101901.41;;;12.25;100.00
58622;BME280;44389;51.578;5.456;2023-05-08T03:41:58;101906.66;;;12.27;100.00
58622;BME280;44389;51.578;5.456;2023-05-08T03:44:24;101892.66;;;12.22;100.00
58622;BME280;44389;51.578;5.456;2023-05-08T03:46:54;101895.69;;;12.11;100.00
58622;BME280;44389;51.578;5.456;2023-05-08T03:49:24;101895.56;;;12.08;100.00
58622;BME280;44389;51.578;5.456;2023-05-08T03:51:49;101898.75;;;12.24;100.00
58622;BME280;44389;51.578;5.456;2023-05-08T03:54:15;101884.28;;;12.06;100.00
58622;BME280;44389;51.578;5.456;2023-05-08T03:56:40;101889.47;;;12.06;100.00
58622;BME280;44389;51.578;5.456;2023-05-08T03:59:13;101892.09;;;12.08;100.00
58622;BME280;44389;51.578;5.456;2023-05-08T04:02:10;101892.34;;;12.14;100.00
58622;BME280;44389;51.578;5.456;2023-05-08T04:04:39;101894.75;;;12.09;100.00
58622;BME280;44389;51.578;5.456;2023-05-08T04:09:49;101895.00;;;12.15;100.00
58622;BME280;44389;51.578;5.456;2023-05-08T04:12:21;101894.88;;;12.12;100.00
58622;BME280;44389;51.578;5.456;2023-05-08T04:14:52;101900.06;;;12.12;100.00
58622;BME280;44389;51.578;5.456;2023-05-08T04:17:33;101905.44;;;12.18;100.00
58622;BME280;44389;51.578;5.456;2023-05-08T04:20:03;101900.28;;;12.18;100.00
58622;BME280;44389;51.578;5.456;2023-05-08T04:22:31;101905.97;;;12.10;100.00
58622;BME280;44389;51.578;5.456;2023-05-08T04:24:58;101905.97;;;12.10;100.00
58622;BME280;44389;51.578;5.456;2023-05-08T04:27:25;101908.88;;;12.17;100.00
58622;BME280;44389;51.578;5.456;2023-05-08T04:29:52;101918.25;;;12.15;100.00
58622;BME280;44389;51.578;5.456;2023-05-08T04:32:18;101907.09;;;12.16;100.00
58622;BME280;44389;51.578;5.456;2023-05-08T04:34:44;101913.03;;;12.14;100.00
58622;BME280;44389;51.578;5.456;2023-05-08T04:37:22;101915.56;;;12.12;100.00
58622;BME280;44389;51.578;5.456;2023-05-08T04:39:50;101921.53;;;12.11;100.00
58622;BME280;44389;51.578;5.456;2023-05-08T04:42:15;101914.81;;;12.15;100.00
58622;BME280;44389;51.578;5.456;2023-05-08T04:44:40;101914.91;;;12.18;100.00
58622;BME280;44389;51.578;5.456;2023-05-08T04:47:05;101920.94;;;12.18;100.00
58622;BME280;44389;51.578;5.456;2023-05-08T04:49:31;101925.19;;;12.16;100.00
58622;BME280;44389;51.578;5.456;2023-05-08T04:51:56;101926.13;;;12.18;100.00
58622;BME280;44389;51.578;5.456;2023-05-08T04:54:22;101925.44;;;12.23;100.00
58622;BME280;44389;51.578;5.456;2023-05-08T04:56:47;101928.25;;;12.29;100.00
58622;BME280;44389;51.578;5.456;2023-05-08T04:59:12;101927.63;;;12.34;100.00
58622;BME280;44389;51.578;5.456;2023-05-08T05:01:37;101939.19;;;12.44;100.00
58622;BME280;44389;51.578;5.456;2023-05-08T05:04:03;101936.03;;;12.51;100.00
58622;BME280;44389;51.578;5.456;2023-05-08T05:06:28;101936.41;;;12.61;100.00
58622;BME280;44389;51.578;5.456;2023-05-08T05:08:53;101942.56;;;12.64;100.00
58622;BME280;44389;51.578;5.456;2023-05-08T05:11:19;101941.00;;;12.68;100.00
58622;BME280;44389;51.578;5.456;2023-05-08T05:13:45;101948.97;;;12.74;100.00
58622;BME280;44389;51.578;5.456;2023-05-08T05:16:10;101949.22;;;12.80;100.00
58622;BME280;44389;51.578;5.456;2023-05-08T05:18:36;101950.09;;;12.81;100.00
58622;BME280;44389;51.578;5.456;2023-05-08T05:21:01;101958.84;;;12.84;100.00
58622;BME280;44389;51.578;5.456;2023-05-08T05:23:27;101961.44;;;12.84;100.00
58622;BME280;44389;51.578;5.456;2023-05-08T05:25:52;101968.28;;;12.82;100.00
58622;BME280;44389;51.578;5.456;2023-05-08T05:28:18;101964.97;;;12.87;100.00
58622;BME280;44389;51.578;5.456;2023-05-08T05:30:46;101964.25;;;12.91;100.00
58622;BME280;44389;51.578;5.456;2023-05-08T05:33:11;101965.25;;;12.94;100.00
58622;BME280;44389;51.578;5.456;2023-05-08T05:35:36;101965.06;;;12.90;100.00
58622;BME280;44389;51.578;5.456;2023-05-08T05:38:01;101966.59;;;13.07;100.00
58622;BME280;44389;51.578;5.456;2023-05-08T05:40:27;101967.31;;;13.03;100.00
58622;BME280;44389;51.578;5.456;2023-05-08T05:42:52;101963.34;;;13.13;100.00
58622;BME280;44389;51.578;5.456;2023-05-08T05:45:17;101975.53;;;13.15;100.00
58622;BME280;44389;51.578;5.456;2023-05-08T05:47:44;101970.81;;;13.05;100.00
58622;BME280;44389;51.578;5.456;2023-05-08T05:50:10;101981.41;;;13.11;100.00
58622;BME280;44389;51.578;5.456;2023-05-08T05:52:35;101974.59;;;13.13;100.00
58622;BME280;44389;51.578;5.456;2023-05-08T05:55:01;101978.25;;;13.18;100.00
58622;BME280;44389;51.578;5.456;2023-05-08T05:57:26;101978.47;;;13.25;100.00
58622;BME280;44389;51.578;5.456;2023-05-08T05:59:51;101985.63;;;13.32;100.00
58622;BME280;44389;51.578;5.456;2023-05-08T06:02:17;101982.97;;;13.53;100.00
58622;BME280;44389;51.578;5.456;2023-05-08T06:04:44;101987.44;;;13.57;100.00
58622;BME280;44389;51.578;5.456;2023-05-08T06:07:09;101985.84;;;13.61;100.00
58622;BME280;44389;51.578;5.456;2023-05-08T06:09:34;101985.22;;;13.68;100.00
58622;BME280;44389;51.578;5.456;2023-05-08T06:12:01;101983.56;;;13.70;100.00
58622;BME280;44389;51.578;5.456;2023-05-08T06:14:26;101978.47;;;13.73;100.00
58622;BME280;44389;51.578;5.456;2023-05-08T06:16:51;101979.53;;;13.78;100.00
58622;BME280;44389;51.578;5.456;2023-05-08T06:19:17;101975.38;;;13.83;100.00
58622;BME280;44389;51.578;5.456;2023-05-08T06:21:42;101978.34;;;13.94;100.00
58622;BME280;44389;51.578;5.456;2023-05-08T06:24:07;101982.94;;;14.03;100.00
58622;BME280;44389;51.578;5.456;2023-05-08T06:26:33;101980.69;;;13.87;100.00
58622;BME280;44389;51.578;5.456;2023-05-08T06:28:58;101981.81;;;13.95;100.00
58622;BME280;44389;51.578;5.456;2023-05-08T06:31:23;101981.69;;;14.18;100.00
58622;BME280;44389;51.578;5.456;2023-05-08T06:33:49;101982.00;;;14.27;100.00
58622;BME280;44389;51.578;5.456;2023-05-08T06:36:14;101987.19;;;14.27;100.00
58622;BME280;44389;51.578;5.456;2023-05-08T06:38:39;101983.88;;;14.31;100.00
58622;BME280;44389;51.578;5.456;2023-05-08T06:41:05;101994.06;;;14.26;100.00
58622;BME280;44389;51.578;5.456;2023-05-08T06:43:30;101995.22;;;14.35;100.00
58622;BME280;44389;51.578;5.456;2023-05-08T06:45:55;101985.19;;;14.45;100.00
58622;BME280;44389;51.578;5.456;2023-05-08T06:48:21;101990.53;;;14.50;100.00
58622;BME280;44389;51.578;5.456;2023-05-08T06:50:46;101989.59;;;14.48;100.00
58622;BME280;44389;51.578;5.456;2023-05-08T06:53:12;101998.16;;;14.45;100.00
58622;BME280;44389;51.578;5.456;2023-05-08T06:55:37;102004.03;;;14.40;100.00
58622;BME280;44389;51.578;5.456;2023-05-08T06:58:03;102002.94;;;14.33;100.00
58622;BME280;44389;51.578;5.456;2023-05-08T07:00:28;102001.38;;;14.38;100.00
58622;BME280;44389;51.578;5.456;2023-05-08T07:02:54;102004.91;;;14.40;100.00
58622;BME280;44389;51.578;5.456;2023-05-08T07:05:19;102002.16;;;14.36;100.00
58622;BME280;44389;51.578;5.456;2023-05-08T07:07:44;102004.41;;;14.25;100.00
58622;BME280;44389;51.578;5.456;2023-05-08T07:10:10;102013.22;;;14.30;100.00
58622;BME280;44389;51.578;5.456;2023-05-08T07:12:35;102018.41;;;14.30;100.00
58622;BME280;44389;51.578;5.456;2023-05-08T07:15:01;102019.88;;;14.22;100.00
58622;BME280;44389;51.578;5.456;2023-05-08T07:17:26;102013.00;;;14.24;100.00
58622;BME280;44389;51.578;5.456;2023-05-08T07:19:51;102007.75;;;14.21;100.00
58622;BME280;44389;51.578;5.456;2023-05-08T07:22:17;102013.00;;;14.24;100.00
58622;BME280;44389;51.578;5.456;2023-05-08T07:24:42;102015.84;;;14.31;100.00
58622;BME280;44389;51.578;5.456;2023-05-08T07:27:08;102011.56;;;14.32;100.00
58622;BME280;44389;51.578;5.456;2023-05-08T07:29:34;102020.38;;;14.37;100.00
58622;BME280;44389;51.578;5.456;2023-05-08T07:32:06;102016.16;;;14.41;100.00
58622;BME280;44389;51.578;5.456;2023-05-08T07:34:32;102014.53;;;14.44;100.00
58622;BME280;44389;51.578;5.456;2023-05-08T07:36:58;102012.91;;;14.46;100.00
58622;BME280;44389;51.578;5.456;2023-05-08T07:39:23;102005.31;;;14.53;100.00
58622;BME280;44389;51.578;5.456;2023-05-08T07:41:48;102003.75;;;14.58;100.00
58622;BME280;44389;51.578;5.456;2023-05-08T07:44:13;102013.19;;;14.56;100.00
58622;BME280;44389;51.578;5.456;2023-05-08T07:46:39;102007.50;;;14.66;100.00
58622;BME280;44389;51.578;5.456;2023-05-08T07:49:04;102009.81;;;14.86;100.00
58622;BME280;44389;51.578;5.456;2023-05-08T07:51:30;102006.59;;;14.93;100.00
58622;BME280;44389;51.578;5.456;2023-05-08T07:53:56;102001.06;;;15.11;100.00
58622;BME280;44389;51.578;5.456;2023-05-08T07:56:21;102002.28;;;15.24;100.00
58622;BME280;44389;51.578;5.456;2023-05-08T07:58:47;102009.25;;;15.57;100.00
58622;BME280;44389;51.578;5.456;2023-05-08T08:01:12;102002.81;;;15.74;100.00
58622;BME280;44389;51.578;5.456;2023-05-08T08:03:37;102006.22;;;16.04;100.00
58622;BME280;44389;51.578;5.456;2023-05-08T08:06:03;102009.91;;;16.13;100.00
58622;BME280;44389;51.578;5.456;2023-05-08T08:08:28;102004.50;;;16.41;100.00
58622;BME280;44389;51.578;5.456;2023-05-08T08:10:53;102009.44;;;16.28;100.00
58622;BME280;44389;51.578;5.456;2023-05-08T08:13:19;102012.59;;;16.52;100.00
58622;BME280;44389;51.578;5.456;2023-05-08T08:15:44;102004.53;;;16.79;100.00
58622;BME280;44389;51.578;5.456;2023-05-08T08:18:10;102008.13;;;17.24;100.00
58622;BME280;44389;51.578;5.456;2023-05-08T08:20:35;102012.41;;;17.22;100.00
58622;BME280;44389;51.578;5.456;2023-05-08T08:23:01;102016.78;;;17.67;100.00
58622;BME280;44389;51.578;5.456;2023-05-08T08:25:27;102019.59;;;17.78;100.00
58622;BME280;44389;51.578;5.456;2023-05-08T08:27:52;102018.44;;;17.62;100.00
58622;BME280;44389;51.578;5.456;2023-05-08T08:30:17;102014.06;;;17.61;100.00
58622;BME280;44389;51.578;5.456;2023-05-08T08:32:43;102012.16;;;17.51;100.00
58622;BME280;44389;51.578;5.456;2023-05-08T08:35:08;102006.84;;;17.48;100.00
58622;BME280;44389;51.578;5.456;2023-05-08T08:37:34;102010.41;;;17.51;100.00
58622;BME280;44389;51.578;5.456;2023-05-08T08:39:59;102003.72;;;17.66;100.00
58622;BME280;44389;51.578;5.456;2023-05-08T08:42:25;102007.69;;;17.47;100.00
58622;BME280;44389;51.578;5.456;2023-05-08T08:44:50;102008.34;;;17.35;100.00
58622;BME280;44389;51.578;5.456;2023-05-08T08:47:18;102007.69;;;17.47;100.00
58622;BME280;44389;51.578;5.456;2023-05-08T08:49:46;102013.03;;;17.53;100.00
58622;BME280;44389;51.578;5.456;2023-05-08T08:52:31;102015.81;;;17.62;100.00
58622;BME280;44389;51.578;5.456;2023-05-08T08:55:05;102009.63;;;18.01;100.00
58622;BME280;44389;51.578;5.456;2023-05-08T08:57:33;102006.72;;;17.87;100.00
58622;BME280;44389;51.578;5.456;2023-05-08T09:00:02;102006.53;;;18.25;100.00
58622;BME280;44389;51.578;5.456;2023-05-08T09:02:30;102008.13;;;18.72;100.00
58622;BME280;44389;51.578;5.456;2023-05-08T09:04:56;102010.09;;;18.89;100.00
58622;BME280;44389;51.578;5.456;2023-05-08T09:07:22;102009.13;;;18.82;100.00
58622;BME280;44389;51.578;5.456;2023-05-08T09:09:49;102013.47;;;18.82;100.00
58622;BME280;44389;51.578;5.456;2023-05-08T09:12:14;102012.56;;;18.78;100.00
58622;BME280;44389;51.578;5.456;2023-05-08T09:14:40;102011.94;;;18.93;100.00
58622;BME280;44389;51.578;5.456;2023-05-08T09:17:05;102020.09;;;19.18;100.00
58622;BME280;44389;51.578;5.456;2023-05-08T09:19:32;102017.47;;;19.16;100.00
58622;BME280;44389;51.578;5.456;2023-05-08T09:22:00;102024.25;;;19.03;100.00
58622;BME280;44389;51.578;5.456;2023-05-08T09:27:21;102023.47;;;18.51;100.00
58622;BME280;44389;51.578;5.456;2023-05-08T09:32:34;102014.31;;;18.21;100.00
58622;BME280;44389;51.578;5.456;2023-05-08T09:35:00;102019.78;;;18.36;100.00
58622;BME280;44389;51.578;5.456;2023-05-08T09:37:27;102020.19;;;18.64;100.00
58622;BME280;44389;51.578;5.456;2023-05-08T09:39:53;102019.53;;;18.78;100.00
58622;BME280;44389;51.578;5.456;2023-05-08T09:42:19;102022.13;;;18.76;100.00
58622;BME280;44389;51.578;5.456;2023-05-08T09:44:46;102013.84;;;19.06;100.00
58622;BME280;44389;51.578;5.456;2023-05-08T09:47:17;102014.84;;;19.18;100.00
58622;BME280;44389;51.578;5.456;2023-05-08T09:50:23;102012.56;;;19.46;100.00
58622;BME280;44389;51.578;5.456;2023-05-08T09:52:49;102014.25;;;19.40;100.00
58622;BME280;44389;51.578;5.456;2023-05-08T09:55:15;102019.22;;;19.19;99.83
58622;BME280;44389;51.578;5.456;2023-05-08T09:57:54;102019.06;;;19.06;99.92
58622;BME280;44389;51.578;5.456;2023-05-08T10:00:21;102024.47;;;19.19;100.00
58622;BME280;44389;51.578;5.456;2023-05-08T10:02:57;102023.66;;;19.26;100.00
58622;BME280;44389;51.578;5.456;2023-05-08T10:05:30;102021.00;;;19.20;100.00
58622;BME280;44389;51.578;5.456;2023-05-08T10:08:21;102018.00;;;19.64;100.00
58622;BME280;44389;51.578;5.456;2023-05-08T10:10:47;102020.16;;;19.24;98.24
58622;BME280;44389;51.578;5.456;2023-05-08T10:13:13;102019.03;;;19.03;100.00
58622;BME280;44389;51.578;5.456;2023-05-08T10:15:41;102024.28;;;19.06;100.00
58622;BME280;44389;51.578;5.456;2023-05-08T10:18:07;102020.41;;;18.80;100.00
58622;BME280;44389;51.578;5.456;2023-05-08T10:20:34;102024.84;;;18.27;100.00
58622;BME280;44389;51.578;5.456;2023-05-08T10:23:02;102026.13;;;18.00;100.00
58622;BME280;44389;51.578;5.456;2023-05-08T10:25:33;102031.22;;;17.94;100.00
58622;BME280;44389;51.578;5.456;2023-05-08T10:28:12;102027.63;;;17.90;100.00
58622;BME280;44389;51.578;5.456;2023-05-08T10:30:42;102023.31;;;17.91;100.00
58622;BME280;44389;51.578;5.456;2023-05-08T10:33:09;102025.00;;;17.89;100.00
58622;BME280;44389;51.578;5.456;2023-05-08T10:35:36;102025.66;;;17.75;100.00
58622;BME280;44389;51.578;5.456;2023-05-08T10:38:03;102026.47;;;17.73;100.00
58622;BME280;44389;51.578;5.456;2023-05-08T10:40:28;102021.47;;;17.87;100.00
58622;BME280;44389;51.578;5.456;2023-05-08T10:42:55;102024.25;;;17.93;100.00
58622;BME280;44389;51.578;5.456;2023-05-08T10:45:20;102018.53;;;18.14;100.00
58622;BME280;44389;51.578;5.456;2023-05-08T10:48:15;102021.44;;;18.31;100.00
58622;BME280;44389;51.578;5.456;2023-05-08T10:51:09;102032.03;;;18.43;100.00
58622;BME280;44389;51.578;5.456;2023-05-08T10:53:43;102018.22;;;18.48;100.00
58622;BME280;44389;51.578;5.456;2023-05-08T10:56:10;102023.44;;;18.48;100.00
58622;BME280;44389;51.578;5.456;2023-05-08T10:58:36;102012.34;;;18.64;100.00
58622;BME280;44389;51.578;5.456;2023-05-08T11:03:32;102012.13;;;19.08;100.00
58622;BME280;44389;51.578;5.456;2023-05-08T11:06:02;102010.78;;;19.41;100.00
58622;BME280;44389;51.578;5.456;2023-05-08T11:08:28;102008.31;;;19.54;100.00
58622;BME280;44389;51.578;5.456;2023-05-08T11:13:49;102005.88;;;19.74;98.07
58622;BME280;44389;51.578;5.456;2023-05-08T11:16:16;101999.78;;;19.70;98.10
58622;BME280;44389;51.578;5.456;2023-05-08T11:19:17;102001.56;;;19.78;100.00
58622;BME280;44389;51.578;5.456;2023-05-08T11:22:14;101998.03;;;19.74;98.39
58622;BME280;44389;51.578;5.456;2023-05-08T11:24:53;101991.13;;;19.79;98.15
58622;BME280;44389;51.578;5.456;2023-05-08T11:32:57;101984.88;;;19.66;98.18
58622;BME280;44389;51.578;5.456;2023-05-08T11:35:52;101979.97;;;19.97;97.76
58622;BME280;44389;51.578;5.456;2023-05-08T11:38:26;101987.41;;;20.60;97.31
58622;BME280;44389;51.578;5.456;2023-05-08T11:40:57;101979.72;;;20.82;93.09
58622;BME280;44389;51.578;5.456;2023-05-08T11:43:30;101985.00;;;20.91;90.81
58622;BME280;44389;51.578;5.456;2023-05-08T11:46:03;101989.66;;;22.19;91.06
58622;BME280;44389;51.578;5.456;2023-05-08T11:48:30;101977.25;;;23.01;80.67
58622;BME280;44389;51.578;5.456;2023-05-08T11:50:58;101985.00;;;23.39;78.86
58622;BME280;44389;51.578;5.456;2023-05-08T11:53:23;101971.94;;;23.09;74.48
58622;BME280;44389;51.578;5.456;2023-05-08T11:55:51;101974.66;;;22.91;76.52
58622;BME280;44389;51.578;5.456;2023-05-08T11:58:17;101972.75;;;23.34;74.65
58622;BME280;44389;51.578;5.456;2023-05-08T12:00:43;101970.97;;;23.33;73.16
58622;BME280;44389;51.578;5.456;2023-05-08T12:03:13;101972.25;;;24.03;76.11
58622;BME280;44389;51.578;5.456;2023-05-08T12:05:39;101958.59;;;23.54;69.05
58622;BME280;44389;51.578;5.456;2023-05-08T12:08:05;101967.41;;;23.41;72.90
58622;BME280;44389;51.578;5.456;2023-05-08T12:10:31;101956.00;;;23.42;71.54
58622;BME280;44389;51.578;5.456;2023-05-08T12:12:56;101962.19;;;24.45;72.28
58622;BME280;44389;51.578;5.456;2023-05-08T12:15:21;101958.25;;;24.86;63.70
58622;BME280;44389;51.578;5.456;2023-05-08T12:17:47;101965.91;;;24.25;63.61
58622;BME280;44389;51.578;5.456;2023-05-08T12:20:13;101959.34;;;23.68;66.22
58622;BME280;44389;51.578;5.456;2023-05-08T12:22:39;101951.53;;;23.59;68.61
58622;BME280;44389;51.578;5.456;2023-05-08T12:25:07;101950.75;;;23.45;67.84
58622;BME280;44389;51.578;5.456;2023-05-08T12:27:35;101955.63;;;23.97;63.61
58622;BME280;44389;51.578;5.456;2023-05-08T12:30:05;101951.88;;;24.23;62.31
58622;BME280;44389;51.578;5.456;2023-05-08T12:32:31;101948.41;;;24.21;60.69
58622;BME280;44389;51.578;5.456;2023-05-08T12:34:59;101963.78;;;24.61;60.30
58622;BME280;44389;51.578;5.456;2023-05-08T12:37:27;101951.81;;;24.32;61.36
58622;BME280;44389;51.578;5.456;2023-05-08T12:39:53;101951.31;;;23.90;61.56
58622;BME280;44389;51.578;5.456;2023-05-08T12:42:18;101948.59;;;23.99;65.66
58622;BME280;44389;51.578;5.456;2023-05-08T12:44:51;101946.31;;;24.53;65.20
58622;BME280;44389;51.578;5.456;2023-05-08T12:47:19;101941.22;;;24.36;58.26
58622;BME280;44389;51.578;5.456;2023-05-08T12:49:45;101933.00;;;23.72;60.82
58622;BME280;44389;51.578;5.456;2023-05-08T12:52:14;101924.22;;;23.73;64.07
58622;BME280;44389;51.578;5.456;2023-05-08T12:54:45;101917.38;;;23.51;60.33
58622;BME280;44389;51.578;5.456;2023-05-08T12:57:14;101921.25;;;22.84;62.75
58622;BME280;44389;51.578;5.456;2023-05-08T12:59:40;101918.53;;;22.99;63.47
58622;BME280;44389;51.578;5.456;2023-05-08T13:04:42;101905.72;;;23.83;62.25
58622;BME280;44389;51.578;5.456;2023-05-08T13:07:08;101915.22;;;24.82;58.50
58622;BME280;44389;51.578;5.456;2023-05-08T13:09:33;101911.38;;;25.07;56.15
58622;BME280;44389;51.578;5.456;2023-05-08T13:11:59;101908.59;;;25.16;54.67
58622;BME280;44389;51.578;5.456;2023-05-08T13:14:24;101909.22;;;24.73;54.40
58622;BME280;44389;51.578;5.456;2023-05-08T13:16:49;101909.81;;;24.17;53.70
58622;BME280;44389;51.578;5.456;2023-05-08T13:19:16;101909.91;;;24.06;57.09